sensor_id;sensor_type;location;lat;lon;timestamp;P1;durP1;ratioP1;P2;durP2;ratioP2
68872;SDS011;55907;50.806;12.882;2023-03-14T00:01:47;1.0;;;0.4;;
68872;SDS011;55907;50.806;12.882;2023-03-14T00:04:49;0.6;;;0.4;;
68872;SDS011;55907;50.806;12.882;2023-03-14T00:07:51;0.4;;;0.3;;
68872;SDS011;55907;50.806;12.882;2023-03-14T00:10:52;0.6;;;0.4;;
68872;SDS011;55907;50.806;12.882;2023-03-14T00:13:54;0.7;;;0.5;;
68872;SDS011;55907;50.806;12.882;2023-03-14T00:16:55;1.0;;;0.5;;
68872;SDS011;55907;50.806;12.882;2023-03-14T00:19:57;0.4;;;0.3;;
68872;SDS011;55907;50.806;12.882;2023-03-14T00:22:58;1.4;;;0.3;;
68872;SDS011;55907;50.806;12.882;2023-03-14T00:26:00;0.5;;;0.3;;
68872;SDS011;55907;50.806;12.882;2023-03-14T00:29:01;0.9;;;0.4;;
68872;SDS011;55907;50.806;12.882;2023-03-14T00:32:03;0.2;;;0.2;;
68872;SDS011;55907;50.806;12.882;2023-03-14T00:35:05;0.4;;;0.2;;
68872;SDS011;55907;50.806;12.882;2023-03-14T00:41:08;0.3;;;0.2;;
68872;SDS011;55907;50.806;12.882;2023-03-14T00:44:09;0.7;;;0.2;;
68872;SDS011;55907;50.806;12.882;2023-03-14T00:47:10;0.4;;;0.3;;
68872;SDS011;55907;50.806;12.882;2023-03-14T00:50:12;0.3;;;0.1;;
68872;SDS011;55907;50.806;12.882;2023-03-14T00:53:14;0.4;;;0.2;;
68872;SDS011;55907;50.806;12.882;2023-03-14T00:59:17;0.3;;;0.2;;
68872;SDS011;55907;50.806;12.882;2023-03-14T01:05:21;0.4;;;0.1;;
68872;SDS011;55907;50.806;12.882;2023-03-14T01:08:21;0.6;;;0.2;;
68872;SDS011;55907;50.806;12.882;2023-03-14T01:11:23;0.8;;;0.2;;
68872;SDS011;55907;50.806;12.882;2023-03-14T01:14:24;0.7;;;0.2;;
68872;SDS011;55907;50.806;12.882;2023-03-14T01:17:26;0.2;;;0.1;;
68872;SDS011;55907;50.806;12.882;2023-03-14T01:20:27;1.0;;;0.2;;
68872;SDS011;55907;50.806;12.882;2023-03-14T01:23:29;1.4;;;0.5;;
68872;SDS011;55907;50.806;12.882;2023-03-14T01:26:31;0.3;;;0.2;;
68872;SDS011;55907;50.806;12.882;2023-03-14T01:29:32;0.5;;;0.3;;
68872;SDS011;55907;50.806;12.882;2023-03-14T01:32:34;0.2;;;0.2;;
68872;SDS011;55907;50.806;12.882;2023-03-14T01:35:35;0.6;;;0.2;;
68872;SDS011;55907;50.806;12.882;2023-03-14T01:38:37;0.7;;;0.2;;
68872;SDS011;55907;50.806;12.882;2023-03-14T01:41:38;0.4;;;0.2;;
68872;SDS011;55907;50.806;12.882;2023-03-14T01:47:41;0.7;;;0.2;;
68872;SDS011;55907;50.806;12.882;2023-03-14T01:50:43;0.5;;;0.2;;
68872;SDS011;55907;50.806;12.882;2023-03-14T01:53:44;0.4;;;0.3;;
68872;SDS011;55907;50.806;12.882;2023-03-14T01:56:47;0.8;;;0.4;;
68872;SDS011;55907;50.806;12.882;2023-03-14T01:59:48;0.4;;;0.2;;
68872;SDS011;55907;50.806;12.882;2023-03-14T02:02:50;0.6;;;0.2;;
68872;SDS011;55907;50.806;12.882;2023-03-14T02:08:52;0.2;;;0.2;;
68872;SDS011;55907;50.806;12.882;2023-03-14T02:11:54;0.6;;;0.3;;
68872;SDS011;55907;50.806;12.882;2023-03-14T02:14:55;0.4;;;0.3;;
68872;SDS011;55907;50.806;12.882;2023-03-14T02:17:57;0.6;;;0.3;;
68872;SDS011;55907;50.806;12.882;2023-03-14T02:20:59;0.3;;;0.2;;
68872;SDS011;55907;50.806;12.882;2023-03-14T02:24:02;0.9;;;0.4;;
68872;SDS011;55907;50.806;12.882;2023-03-14T02:27:04;0.5;;;0.3;;
68872;SDS011;55907;50.806;12.882;2023-03-14T02:30:04;0.2;;;0.2;;
68872;SDS011;55907;50.806;12.882;2023-03-14T02:33:05;0.4;;;0.2;;
68872;SDS011;55907;50.806;12.882;2023-03-14T02:36:07;0.7;;;0.3;;
68872;SDS011;55907;50.806;12.882;2023-03-14T02:42:09;1.0;;;0.3;;
68872;SDS011;55907;50.806;12.882;2023-03-14T02:48:14;0.3;;;0.2;;
68872;SDS011;55907;50.806;12.882;2023-03-14T02:51:13;0.5;;;0.3;;
68872;SDS011;55907;50.806;12.882;2023-03-14T02:54:15;0.7;;;0.3;;
68872;SDS011;55907;50.806;12.882;2023-03-14T02:57:17;1.2;;;0.3;;
68872;SDS011;55907;50.806;12.882;2023-03-14T03:00:18;1.0;;;0.3;;
68872;SDS011;55907;50.806;12.882;2023-03-14T03:03:20;0.8;;;0.2;;
68872;SDS011;55907;50.806;12.882;2023-03-14T03:06:21;0.4;;;0.3;;
68872;SDS011;55907;50.806;12.882;2023-03-14T03:09:23;0.6;;;0.3;;
68872;SDS011;55907;50.806;12.882;2023-03-14T03:12:24;1.0;;;0.3;;
68872;SDS011;55907;50.806;12.882;2023-03-14T03:15:26;0.6;;;0.3;;
68872;SDS011;55907;50.806;12.882;2023-03-14T03:18:27;1.0;;;0.4;;
68872;SDS011;55907;50.806;12.882;2023-03-14T03:21:29;0.5;;;0.3;;
68872;SDS011;55907;50.806;12.882;2023-03-14T03:24:30;1.7;;;0.5;;
68872;SDS011;55907;50.806;12.882;2023-03-14T03:27:32;0.6;;;0.4;;
68872;SDS011;55907;50.806;12.882;2023-03-14T03:30:36;0.4;;;0.3;;
68872;SDS011;55907;50.806;12.882;2023-03-14T03:33:35;0.8;;;0.4;;
68872;SDS011;55907;50.806;12.882;2023-03-14T03:36:37;0.7;;;0.3;;
68872;SDS011;55907;50.806;12.882;2023-03-14T03:39:38;1.7;;;0.7;;
68872;SDS011;55907;50.806;12.882;2023-03-14T03:42:40;1.2;;;0.4;;
68872;SDS011;55907;50.806;12.882;2023-03-14T03:45:41;1.4;;;0.5;;
68872;SDS011;55907;50.806;12.882;2023-03-14T03:48:43;1.9;;;0.4;;
68872;SDS011;55907;50.806;12.882;2023-03-14T03:51:44;0.9;;;0.4;;
68872;SDS011;55907;50.806;12.882;2023-03-14T03:54:46;2.0;;;0.5;;
68872;SDS011;55907;50.806;12.882;2023-03-14T03:57:47;2.6;;;0.5;;
68872;SDS011;55907;50.806;12.882;2023-03-14T04:00:49;1.4;;;0.4;;
68872;SDS011;55907;50.806;12.882;2023-03-14T04:03:50;2.5;;;0.4;;
68872;SDS011;55907;50.806;12.882;2023-03-14T04:06:52;0.9;;;0.4;;
68872;SDS011;55907;50.806;12.882;2023-03-14T04:09:53;1.3;;;0.4;;
68872;SDS011;55907;50.806;12.882;2023-03-14T04:12:55;1.5;;;0.6;;
68872;SDS011;55907;50.806;12.882;2023-03-14T04:15:57;3.2;;;0.5;;
68872;SDS011;55907;50.806;12.882;2023-03-14T04:18:58;2.5;;;0.7;;
68872;SDS011;55907;50.806;12.882;2023-03-14T04:22:00;3.5;;;0.6;;
68872;SDS011;55907;50.806;12.882;2023-03-14T04:25:01;0.9;;;0.5;;
68872;SDS011;55907;50.806;12.882;2023-03-14T04:28:03;3.3;;;0.6;;
68872;SDS011;55907;50.806;12.882;2023-03-14T04:31:08;1.4;;;0.4;;
68872;SDS011;55907;50.806;12.882;2023-03-14T04:34:06;2.6;;;0.5;;
68872;SDS011;55907;50.806;12.882;2023-03-14T04:37:07;2.2;;;0.6;;
68872;SDS011;55907;50.806;12.882;2023-03-14T04:40:10;2.0;;;0.5;;
68872;SDS011;55907;50.806;12.882;2023-03-14T04:43:11;2.7;;;0.6;;
68872;SDS011;55907;50.806;12.882;2023-03-14T04:46:12;2.3;;;0.7;;
68872;SDS011;55907;50.806;12.882;2023-03-14T04:49:14;2.1;;;0.7;;
68872;SDS011;55907;50.806;12.882;2023-03-14T04:52:15;2.4;;;0.6;;
68872;SDS011;55907;50.806;12.882;2023-03-14T04:55:17;1.9;;;0.6;;
68872;SDS011;55907;50.806;12.882;2023-03-14T04:58:18;3.0;;;0.8;;
68872;SDS011;55907;50.806;12.882;2023-03-14T05:01:20;3.7;;;0.8;;
68872;SDS011;55907;50.806;12.882;2023-03-14T05:04:21;3.1;;;0.6;;
68872;SDS011;55907;50.806;12.882;2023-03-14T05:07:23;5.0;;;0.7;;
68872;SDS011;55907;50.806;12.882;2023-03-14T05:10:24;2.7;;;0.6;;
68872;SDS011;55907;50.806;12.882;2023-03-14T05:13:26;4.3;;;0.6;;
68872;SDS011;55907;50.806;12.882;2023-03-14T05:16:27;2.7;;;0.7;;
68872;SDS011;55907;50.806;12.882;2023-03-14T05:19:29;4.8;;;0.7;;
68872;SDS011;55907;50.806;12.882;2023-03-14T05:22:30;4.5;;;0.8;;
68872;SDS011;55907;50.806;12.882;2023-03-14T05:25:32;3.0;;;0.7;;
68872;SDS011;55907;50.806;12.882;2023-03-14T05:28:34;4.6;;;1.0;;
68872;SDS011;55907;50.806;12.882;2023-03-14T05:31:35;4.7;;;1.0;;
68872;SDS011;55907;50.806;12.882;2023-03-14T05:34:37;3.5;;;0.9;;
68872;SDS011;55907;50.806;12.882;2023-03-14T05:37:38;3.7;;;0.7;;
68872;SDS011;55907;50.806;12.882;2023-03-14T05:40:40;2.9;;;0.8;;
68872;SDS011;55907;50.806;12.882;2023-03-14T05:43:41;3.6;;;0.9;;
68872;SDS011;55907;50.806;12.882;2023-03-14T05:46:43;1.8;;;0.7;;
68872;SDS011;55907;50.806;12.882;2023-03-14T05:49:44;3.5;;;0.6;;
68872;SDS011;55907;50.806;12.882;2023-03-14T05:52:46;4.0;;;0.9;;
68872;SDS011;55907;50.806;12.882;2023-03-14T05:55:50;3.4;;;0.8;;
68872;SDS011;55907;50.806;12.882;2023-03-14T05:58:49;3.6;;;0.7;;
68872;SDS011;55907;50.806;12.882;2023-03-14T06:01:50;3.7;;;0.7;;
68872;SDS011;55907;50.806;12.882;2023-03-14T06:04:52;3.4;;;0.9;;
68872;SDS011;55907;50.806;12.882;2023-03-14T06:07:54;2.5;;;0.6;;
68872;SDS011;55907;50.806;12.882;2023-03-14T06:10:56;2.9;;;0.8;;
68872;SDS011;55907;50.806;12.882;2023-03-14T06:13:57;3.0;;;0.9;;
68872;SDS011;55907;50.806;12.882;2023-03-14T06:16:58;2.7;;;0.8;;
68872;SDS011;55907;50.806;12.882;2023-03-14T06:20:00;4.0;;;0.9;;
68872;SDS011;55907;50.806;12.882;2023-03-14T06:23:01;5.1;;;1.3;;
68872;SDS011;55907;50.806;12.882;2023-03-14T06:26:03;5.8;;;2.0;;
68872;SDS011;55907;50.806;12.882;2023-03-14T06:29:04;3.8;;;0.8;;
68872;SDS011;55907;50.806;12.882;2023-03-14T06:32:06;3.0;;;0.6;;
68872;SDS011;55907;50.806;12.882;2023-03-14T06:35:07;3.9;;;0.8;;
68872;SDS011;55907;50.806;12.882;2023-03-14T06:38:09;2.4;;;0.6;;
68872;SDS011;55907;50.806;12.882;2023-03-14T06:41:10;2.8;;;0.7;;
68872;SDS011;55907;50.806;12.882;2023-03-14T06:44:12;3.2;;;0.8;;
68872;SDS011;55907;50.806;12.882;2023-03-14T06:47:13;2.4;;;0.6;;
68872;SDS011;55907;50.806;12.882;2023-03-14T06:50:15;2.0;;;0.6;;
68872;SDS011;55907;50.806;12.882;2023-03-14T06:53:16;3.1;;;0.9;;
68872;SDS011;55907;50.806;12.882;2023-03-14T06:59:19;2.5;;;0.9;;
68872;SDS011;55907;50.806;12.882;2023-03-14T07:02:21;3.6;;;1.7;;
68872;SDS011;55907;50.806;12.882;2023-03-14T07:05:22;2.4;;;0.8;;
68872;SDS011;55907;50.806;12.882;2023-03-14T07:08:24;5.5;;;1.4;;
68872;SDS011;55907;50.806;12.882;2023-03-14T07:11:25;2.5;;;0.5;;
68872;SDS011;55907;50.806;12.882;2023-03-14T07:14:27;4.7;;;2.0;;
68872;SDS011;55907;50.806;12.882;2023-03-14T07:17:28;2.7;;;0.9;;
68872;SDS011;55907;50.806;12.882;2023-03-14T07:20:30;2.0;;;0.8;;
68872;SDS011;55907;50.806;12.882;2023-03-14T07:23:31;2.7;;;1.1;;
68872;SDS011;55907;50.806;12.882;2023-03-14T07:26:33;1.6;;;0.7;;
68872;SDS011;55907;50.806;12.882;2023-03-14T07:29:34;3.5;;;1.4;;
68872;SDS011;55907;50.806;12.882;2023-03-14T07:32:36;4.4;;;0.6;;
68872;SDS011;55907;50.806;12.882;2023-03-14T07:35:38;1.5;;;0.7;;
68872;SDS011;55907;50.806;12.882;2023-03-14T07:38:39;2.6;;;0.6;;
68872;SDS011;55907;50.806;12.882;2023-03-14T07:41:41;2.8;;;1.2;;
68872;SDS011;55907;50.806;12.882;2023-03-14T07:44:42;3.4;;;0.7;;
68872;SDS011;55907;50.806;12.882;2023-03-14T07:47:44;2.2;;;1.0;;
68872;SDS011;55907;50.806;12.882;2023-03-14T07:53:47;2.7;;;0.8;;
68872;SDS011;55907;50.806;12.882;2023-03-14T07:56:48;2.2;;;0.7;;
68872;SDS011;55907;50.806;12.882;2023-03-14T07:59:50;4.1;;;0.8;;
68872;SDS011;55907;50.806;12.882;2023-03-14T08:02:51;1.8;;;0.6;;
68872;SDS011;55907;50.806;12.882;2023-03-14T08:05:53;3.5;;;0.7;;
68872;SDS011;55907;50.806;12.882;2023-03-14T08:08:55;2.5;;;0.9;;
68872;SDS011;55907;50.806;12.882;2023-03-14T08:11:56;2.1;;;0.7;;
68872;SDS011;55907;50.806;12.882;2023-03-14T08:14:57;4.8;;;1.1;;
68872;SDS011;55907;50.806;12.882;2023-03-14T08:17:59;2.2;;;0.6;;
68872;SDS011;55907;50.806;12.882;2023-03-14T08:21:00;1.9;;;0.6;;
68872;SDS011;55907;50.806;12.882;2023-03-14T08:24:02;1.1;;;0.5;;
68872;SDS011;55907;50.806;12.882;2023-03-14T08:27:06;1.8;;;0.7;;
68872;SDS011;55907;50.806;12.882;2023-03-14T08:30:07;2.0;;;0.8;;
68872;SDS011;55907;50.806;12.882;2023-03-14T08:33:06;7.2;;;3.5;;
68872;SDS011;55907;50.806;12.882;2023-03-14T08:36:08;4.4;;;1.1;;
68872;SDS011;55907;50.806;12.882;2023-03-14T08:39:09;2.0;;;0.7;;
68872;SDS011;55907;50.806;12.882;2023-03-14T08:42:11;1.9;;;0.8;;
68872;SDS011;55907;50.806;12.882;2023-03-14T08:45:13;3.4;;;1.2;;
68872;SDS011;55907;50.806;12.882;2023-03-14T08:48:15;1.9;;;0.7;;
68872;SDS011;55907;50.806;12.882;2023-03-14T08:51:15;3.3;;;0.9;;
68872;SDS011;55907;50.806;12.882;2023-03-14T08:54:17;2.2;;;0.9;;
68872;SDS011;55907;50.806;12.882;2023-03-14T08:57:18;2.5;;;0.6;;
68872;SDS011;55907;50.806;12.882;2023-03-14T09:00:20;2.2;;;0.5;;
68872;SDS011;55907;50.806;12.882;2023-03-14T09:03:21;1.4;;;0.5;;
68872;SDS011;55907;50.806;12.882;2023-03-14T09:06:23;0.9;;;0.5;;
68872;SDS011;55907;50.806;12.882;2023-03-14T09:09:24;3.5;;;1.1;;
68872;SDS011;55907;50.806;12.882;2023-03-14T09:12:26;2.9;;;0.7;;
68872;SDS011;55907;50.806;12.882;2023-03-14T09:15:27;2.6;;;0.9;;
68872;SDS011;55907;50.806;12.882;2023-03-14T09:18:29;3.6;;;0.8;;
68872;SDS011;55907;50.806;12.882;2023-03-14T09:21:30;1.9;;;0.5;;
68872;SDS011;55907;50.806;12.882;2023-03-14T09:24:32;2.0;;;0.8;;
68872;SDS011;55907;50.806;12.882;2023-03-14T09:27:33;1.9;;;0.7;;
68872;SDS011;55907;50.806;12.882;2023-03-14T09:30:35;3.5;;;0.6;;
68872;SDS011;55907;50.806;12.882;2023-03-14T09:33:36;2.0;;;0.6;;
68872;SDS011;55907;50.806;12.882;2023-03-14T09:36:38;1.8;;;0.8;;
68872;SDS011;55907;50.806;12.882;2023-03-14T09:39:39;2.0;;;0.7;;
68872;SDS011;55907;50.806;12.882;2023-03-14T09:42:41;1.8;;;0.6;;
68872;SDS011;55907;50.806;12.882;2023-03-14T09:45:42;3.9;;;1.0;;
68872;SDS011;55907;50.806;12.882;2023-03-14T09:48:44;1.8;;;0.7;;
68872;SDS011;55907;50.806;12.882;2023-03-14T09:51:46;2.1;;;0.8;;
68872;SDS011;55907;50.806;12.882;2023-03-14T09:54:48;3.4;;;0.8;;
68872;SDS011;55907;50.806;12.882;2023-03-14T09:57:49;1.3;;;0.6;;
68872;SDS011;55907;50.806;12.882;2023-03-14T10:00:50;1.2;;;0.5;;
68872;SDS011;55907;50.806;12.882;2023-03-14T10:03:53;1.7;;;0.8;;
68872;SDS011;55907;50.806;12.882;2023-03-14T10:06:53;2.5;;;0.7;;
68872;SDS011;55907;50.806;12.882;2023-03-14T10:09:55;30.4;;;7.0;;
68872;SDS011;55907;50.806;12.882;2023-03-14T10:12:57;3.6;;;1.2;;
68872;SDS011;55907;50.806;12.882;2023-03-14T10:15:59;5.8;;;1.8;;
68872;SDS011;55907;50.806;12.882;2023-03-14T10:19:03;2.8;;;1.1;;
68872;SDS011;55907;50.806;12.882;2023-03-14T10:22:01;1.9;;;0.8;;
68872;SDS011;55907;50.806;12.882;2023-03-14T10:25:03;1.3;;;0.5;;
68872;SDS011;55907;50.806;12.882;2023-03-14T10:28:04;2.0;;;0.7;;
68872;SDS011;55907;50.806;12.882;2023-03-14T10:31:05;2.4;;;0.6;;
68872;SDS011;55907;50.806;12.882;2023-03-14T10:34:12;1.8;;;0.6;;
68872;SDS011;55907;50.806;12.882;2023-03-14T10:37:16;1.7;;;0.5;;
68872;SDS011;55907;50.806;12.882;2023-03-14T10:40:12;1.1;;;0.6;;
68872;SDS011;55907;50.806;12.882;2023-03-14T10:43:13;3.3;;;0.6;;
68872;SDS011;55907;50.806;12.882;2023-03-14T10:46:15;2.1;;;0.6;;
68872;SDS011;55907;50.806;12.882;2023-03-14T10:49:22;2.5;;;0.6;;
68872;SDS011;55907;50.806;12.882;2023-03-14T10:52:19;2.3;;;0.6;;
68872;SDS011;55907;50.806;12.882;2023-03-14T10:55:17;0.9;;;0.4;;
68872;SDS011;55907;50.806;12.882;2023-03-14T10:58:19;1.5;;;0.5;;
68872;SDS011;55907;50.806;12.882;2023-03-14T11:01:25;1.1;;;0.4;;
68872;SDS011;55907;50.806;12.882;2023-03-14T11:04:25;2.2;;;0.5;;
68872;SDS011;55907;50.806;12.882;2023-03-14T11:07:24;1.3;;;0.4;;
68872;SDS011;55907;50.806;12.882;2023-03-14T11:16:29;1.4;;;0.5;;
68872;SDS011;55907;50.806;12.882;2023-03-14T11:19:38;3.6;;;0.6;;
68872;SDS011;55907;50.806;12.882;2023-03-14T11:22:32;1.9;;;0.4;;
68872;SDS011;55907;50.806;12.882;2023-03-14T11:25:32;3.0;;;1.3;;
68872;SDS011;55907;50.806;12.882;2023-03-14T11:28:35;1.7;;;0.7;;
68872;SDS011;55907;50.806;12.882;2023-03-14T11:31:35;1.8;;;0.5;;
68872;SDS011;55907;50.806;12.882;2023-03-14T11:34:39;0.9;;;0.4;;
68872;SDS011;55907;50.806;12.882;2023-03-14T11:40:39;1.1;;;0.4;;
68872;SDS011;55907;50.806;12.882;2023-03-14T11:43:41;0.6;;;0.3;;
68872;SDS011;55907;50.806;12.882;2023-03-14T11:46:43;1.2;;;0.4;;
68872;SDS011;55907;50.806;12.882;2023-03-14T11:49:45;0.7;;;0.4;;
68872;SDS011;55907;50.806;12.882;2023-03-14T11:52:47;0.5;;;0.4;;
68872;SDS011;55907;50.806;12.882;2023-03-14T11:55:47;1.1;;;0.4;;
68872;SDS011;55907;50.806;12.882;2023-03-14T11:58:51;1.0;;;0.4;;
68872;SDS011;55907;50.806;12.882;2023-03-14T12:01:54;0.6;;;0.3;;
68872;SDS011;55907;50.806;12.882;2023-03-14T12:04:54;1.1;;;0.5;;
68872;SDS011;55907;50.806;12.882;2023-03-14T12:08:01;0.6;;;0.4;;
68872;SDS011;55907;50.806;12.882;2023-03-14T12:10:55;1.2;;;0.5;;
68872;SDS011;55907;50.806;12.882;2023-03-14T12:13:56;1.1;;;0.4;;
68872;SDS011;55907;50.806;12.882;2023-03-14T12:16:58;1.8;;;0.8;;
68872;SDS011;55907;50.806;12.882;2023-03-14T12:20:00;0.8;;;0.4;;
68872;SDS011;55907;50.806;12.882;2023-03-14T12:23:02;0.9;;;0.5;;
68872;SDS011;55907;50.806;12.882;2023-03-14T12:29:11;2.4;;;0.6;;
68872;SDS011;55907;50.806;12.882;2023-03-14T12:32:06;1.9;;;1.1;;
68872;SDS011;55907;50.806;12.882;2023-03-14T12:38:09;1.2;;;0.6;;
68872;SDS011;55907;50.806;12.882;2023-03-14T12:41:15;0.8;;;0.4;;
68872;SDS011;55907;50.806;12.882;2023-03-14T12:50:18;0.8;;;0.4;;
68872;SDS011;55907;50.806;12.882;2023-03-14T12:56:20;2.0;;;0.4;;
68872;SDS011;55907;50.806;12.882;2023-03-14T12:59:26;1.0;;;0.6;;
68872;SDS011;55907;50.806;12.882;2023-03-14T13:02:21;0.6;;;0.3;;
68872;SDS011;55907;50.806;12.882;2023-03-14T13:05:21;1.4;;;0.4;;
68872;SDS011;55907;50.806;12.882;2023-03-14T13:11:24;1.0;;;0.4;;
68872;SDS011;55907;50.806;12.882;2023-03-14T13:14:27;1.6;;;0.5;;
68872;SDS011;55907;50.806;12.882;2023-03-14T13:17:28;1.1;;;0.3;;
68872;SDS011;55907;50.806;12.882;2023-03-14T13:20:30;1.0;;;0.3;;
68872;SDS011;55907;50.806;12.882;2023-03-14T13:23:31;0.3;;;0.3;;
68872;SDS011;55907;50.806;12.882;2023-03-14T13:26:32;0.9;;;0.4;;
68872;SDS011;55907;50.806;12.882;2023-03-14T13:29:33;1.2;;;0.4;;
68872;SDS011;55907;50.806;12.882;2023-03-14T13:32:35;2.3;;;0.9;;
68872;SDS011;55907;50.806;12.882;2023-03-14T13:35:39;1.6;;;0.6;;
68872;SDS011;55907;50.806;12.882;2023-03-14T13:38:37;2.1;;;0.8;;
68872;SDS011;55907;50.806;12.882;2023-03-14T13:41:39;1.2;;;0.5;;
68872;SDS011;55907;50.806;12.882;2023-03-14T13:44:40;1.9;;;0.7;;
68872;SDS011;55907;50.806;12.882;2023-03-14T13:47:42;0.6;;;0.4;;
68872;SDS011;55907;50.806;12.882;2023-03-14T13:50:44;1.6;;;0.5;;
68872;SDS011;55907;50.806;12.882;2023-03-14T13:53:46;2.0;;;0.5;;
68872;SDS011;55907;50.806;12.882;2023-03-14T13:56:47;1.6;;;0.4;;
68872;SDS011;55907;50.806;12.882;2023-03-14T14:02:49;1.4;;;0.4;;
68872;SDS011;55907;50.806;12.882;2023-03-14T14:05:51;0.6;;;0.4;;
68872;SDS011;55907;50.806;12.882;2023-03-14T14:08:52;1.0;;;0.4;;
68872;SDS011;55907;50.806;12.882;2023-03-14T14:11:54;1.3;;;0.6;;
68872;SDS011;55907;50.806;12.882;2023-03-14T14:14:56;1.7;;;0.7;;
68872;SDS011;55907;50.806;12.882;2023-03-14T14:17:57;1.9;;;0.5;;
68872;SDS011;55907;50.806;12.882;2023-03-14T14:20:58;0.8;;;0.5;;
68872;SDS011;55907;50.806;12.882;2023-03-14T14:24:00;1.0;;;0.5;;
68872;SDS011;55907;50.806;12.882;2023-03-14T14:27:07;0.9;;;0.5;;
68872;SDS011;55907;50.806;12.882;2023-03-14T14:30:03;1.5;;;0.5;;
68872;SDS011;55907;50.806;12.882;2023-03-14T14:36:11;0.8;;;0.4;;
68872;SDS011;55907;50.806;12.882;2023-03-14T14:39:09;0.9;;;0.5;;
68872;SDS011;55907;50.806;12.882;2023-03-14T14:42:12;1.4;;;0.4;;
68872;SDS011;55907;50.806;12.882;2023-03-14T14:45:12;1.0;;;0.5;;
68872;SDS011;55907;50.806;12.882;2023-03-14T14:48:12;1.8;;;0.5;;
68872;SDS011;55907;50.806;12.882;2023-03-14T14:51:21;1.6;;;0.5;;
68872;SDS011;55907;50.806;12.882;2023-03-14T14:54:15;2.3;;;0.6;;
68872;SDS011;55907;50.806;12.882;2023-03-14T14:57:17;1.1;;;0.5;;
68872;SDS011;55907;50.806;12.882;2023-03-14T15:00:18;1.9;;;0.5;;
68872;SDS011;55907;50.806;12.882;2023-03-14T15:03:19;0.6;;;0.4;;
68872;SDS011;55907;50.806;12.882;2023-03-14T15:06:20;1.2;;;0.4;;
68872;SDS011;55907;50.806;12.882;2023-03-14T15:09:22;1.0;;;0.5;;
68872;SDS011;55907;50.806;12.882;2023-03-14T15:12:23;1.4;;;0.5;;
68872;SDS011;55907;50.806;12.882;2023-03-14T15:15:25;0.8;;;0.5;;
68872;SDS011;55907;50.806;12.882;2023-03-14T15:18:28;1.7;;;0.8;;
68872;SDS011;55907;50.806;12.882;2023-03-14T15:21:29;0.7;;;0.4;;
68872;SDS011;55907;50.806;12.882;2023-03-14T15:24:29;1.3;;;0.5;;
68872;SDS011;55907;50.806;12.882;2023-03-14T15:27:31;1.1;;;0.4;;
68872;SDS011;55907;50.806;12.882;2023-03-14T15:30:32;0.9;;;0.5;;
68872;SDS011;55907;50.806;12.882;2023-03-14T15:33:34;1.7;;;0.8;;
68872;SDS011;55907;50.806;12.882;2023-03-14T15:36:36;1.2;;;0.4;;
68872;SDS011;55907;50.806;12.882;2023-03-14T15:39:37;2.1;;;0.4;;
68872;SDS011;55907;50.806;12.882;2023-03-14T15:42:38;1.3;;;0.5;;
68872;SDS011;55907;50.806;12.882;2023-03-14T15:45:40;0.9;;;0.4;;
68872;SDS011;55907;50.806;12.882;2023-03-14T15:48:41;2.0;;;0.6;;
68872;SDS011;55907;50.806;12.882;2023-03-14T15:51:43;1.1;;;0.6;;
68872;SDS011;55907;50.806;12.882;2023-03-14T15:54:44;1.0;;;0.5;;
68872;SDS011;55907;50.806;12.882;2023-03-14T15:57:46;2.6;;;0.8;;
68872;SDS011;55907;50.806;12.882;2023-03-14T16:00:48;2.2;;;0.7;;
68872;SDS011;55907;50.806;12.882;2023-03-14T16:03:49;0.9;;;0.4;;
68872;SDS011;55907;50.806;12.882;2023-03-14T16:06:51;2.0;;;1.1;;
68872;SDS011;55907;50.806;12.882;2023-03-14T16:09:52;2.4;;;0.7;;
68872;SDS011;55907;50.806;12.882;2023-03-14T16:15:56;1.3;;;0.7;;
68872;SDS011;55907;50.806;12.882;2023-03-14T16:18:57;1.8;;;0.6;;
68872;SDS011;55907;50.806;12.882;2023-03-14T16:21:58;1.9;;;0.5;;
68872;SDS011;55907;50.806;12.882;2023-03-14T16:25:00;4.5;;;2.6;;
68872;SDS011;55907;50.806;12.882;2023-03-14T16:28:01;0.9;;;0.5;;
68872;SDS011;55907;50.806;12.882;2023-03-14T16:34:04;1.4;;;1.3;;
68872;SDS011;55907;50.806;12.882;2023-03-14T16:37:06;3.0;;;2.8;;
68872;SDS011;55907;50.806;12.882;2023-03-14T16:40:09;4.4;;;4.1;;
68872;SDS011;55907;50.806;12.882;2023-03-14T16:43:09;5.3;;;5.0;;
68872;SDS011;55907;50.806;12.882;2023-03-14T16:46:11;5.5;;;5.1;;
68872;SDS011;55907;50.806;12.882;2023-03-14T16:49:12;6.1;;;5.7;;
68872;SDS011;55907;50.806;12.882;2023-03-14T16:52:13;5.9;;;5.6;;
68872;SDS011;55907;50.806;12.882;2023-03-14T16:55:15;5.6;;;5.2;;
68872;SDS011;55907;50.806;12.882;2023-03-14T16:58:17;6.0;;;5.7;;
68872;SDS011;55907;50.806;12.882;2023-03-14T17:01:18;5.1;;;4.8;;
68872;SDS011;55907;50.806;12.882;2023-03-14T17:04:20;5.3;;;5.0;;
68872;SDS011;55907;50.806;12.882;2023-03-14T17:07:21;5.8;;;5.5;;
68872;SDS011;55907;50.806;12.882;2023-03-14T17:10:23;5.7;;;5.3;;
68872;SDS011;55907;50.806;12.882;2023-03-14T17:13:24;6.1;;;5.7;;
68872;SDS011;55907;50.806;12.882;2023-03-14T17:16:26;6.7;;;6.2;;
68872;SDS011;55907;50.806;12.882;2023-03-14T17:19:27;6.4;;;6.0;;
68872;SDS011;55907;50.806;12.882;2023-03-14T17:22:29;5.3;;;5.0;;
68872;SDS011;55907;50.806;12.882;2023-03-14T17:25:31;5.8;;;5.4;;
68872;SDS011;55907;50.806;12.882;2023-03-14T17:28:32;5.9;;;5.5;;
68872;SDS011;55907;50.806;12.882;2023-03-14T17:31:34;6.0;;;5.5;;
68872;SDS011;55907;50.806;12.882;2023-03-14T17:34:35;5.6;;;5.1;;
68872;SDS011;55907;50.806;12.882;2023-03-14T17:37:37;5.5;;;5.1;;
68872;SDS011;55907;50.806;12.882;2023-03-14T17:40:38;5.4;;;4.9;;
68872;SDS011;55907;50.806;12.882;2023-03-14T17:43:40;5.8;;;5.3;;
68872;SDS011;55907;50.806;12.882;2023-03-14T17:46:42;5.9;;;5.4;;
68872;SDS011;55907;50.806;12.882;2023-03-14T17:49:43;5.6;;;5.1;;
68872;SDS011;55907;50.806;12.882;2023-03-14T17:52:45;5.5;;;4.9;;
68872;SDS011;55907;50.806;12.882;2023-03-14T17:55:46;5.7;;;5.2;;
68872;SDS011;55907;50.806;12.882;2023-03-14T17:58:48;6.1;;;5.6;;
68872;SDS011;55907;50.806;12.882;2023-03-14T18:01:50;5.8;;;5.3;;
68872;SDS011;55907;50.806;12.882;2023-03-14T18:04:51;6.3;;;5.4;;
68872;SDS011;55907;50.806;12.882;2023-03-14T18:07:53;5.8;;;5.3;;
68872;SDS011;55907;50.806;12.882;2023-03-14T18:10:54;6.2;;;5.6;;
68872;SDS011;55907;50.806;12.882;2023-03-14T18:13:56;6.8;;;6.1;;
68872;SDS011;55907;50.806;12.882;2023-03-14T18:16:57;7.0;;;6.3;;
68872;SDS011;55907;50.806;12.882;2023-03-14T18:19:59;6.7;;;6.0;;
68872;SDS011;55907;50.806;12.882;2023-03-14T18:23:01;10.3;;;6.6;;
68872;SDS011;55907;50.806;12.882;2023-03-14T18:26:02;12.4;;;6.9;;
68872;SDS011;55907;50.806;12.882;2023-03-14T18:29:04;9.7;;;6.5;;
68872;SDS011;55907;50.806;12.882;2023-03-14T18:32:06;9.2;;;6.2;;
68872;SDS011;55907;50.806;12.882;2023-03-14T18:35:07;8.0;;;6.0;;
68872;SDS011;55907;50.806;12.882;2023-03-14T18:38:08;11.5;;;6.8;;
68872;SDS011;55907;50.806;12.882;2023-03-14T18:41:11;9.6;;;6.1;;
68872;SDS011;55907;50.806;12.882;2023-03-14T18:44:12;14.9;;;7.9;;
68872;SDS011;55907;50.806;12.882;2023-03-14T18:47:13;10.4;;;7.5;;
68872;SDS011;55907;50.806;12.882;2023-03-14T18:50:15;14.0;;;7.1;;
68872;SDS011;55907;50.806;12.882;2023-03-14T18:53:16;12.2;;;7.1;;
68872;SDS011;55907;50.806;12.882;2023-03-14T18:56:18;11.8;;;6.4;;
68872;SDS011;55907;50.806;12.882;2023-03-14T18:59:20;8.5;;;7.1;;
68872;SDS011;55907;50.806;12.882;2023-03-14T19:02:24;11.2;;;6.7;;
68872;SDS011;55907;50.806;12.882;2023-03-14T19:05:23;13.1;;;6.8;;
68872;SDS011;55907;50.806;12.882;2023-03-14T19:08:26;8.4;;;6.1;;
68872;SDS011;55907;50.806;12.882;2023-03-14T19:11:26;13.5;;;6.6;;
68872;SDS011;55907;50.806;12.882;2023-03-14T19:14:28;11.1;;;5.3;;
68872;SDS011;55907;50.806;12.882;2023-03-14T19:17:29;13.3;;;6.4;;
68872;SDS011;55907;50.806;12.882;2023-03-14T19:20:31;13.4;;;6.0;;
68872;SDS011;55907;50.806;12.882;2023-03-14T19:23:33;13.5;;;6.5;;
68872;SDS011;55907;50.806;12.882;2023-03-14T19:26:34;13.8;;;6.0;;
68872;SDS011;55907;50.806;12.882;2023-03-14T19:29:36;13.0;;;5.8;;
68872;SDS011;55907;50.806;12.882;2023-03-14T19:32:37;12.8;;;5.7;;
68872;SDS011;55907;50.806;12.882;2023-03-14T19:35:39;13.1;;;5.9;;